createdAt,value
2022-09-15T00:00:58.278Z,39.70
2022-09-15T00:03:25.215Z,42.02
2022-09-15T00:05:54.320Z,40.75
2022-09-15T00:08:22.763Z,40.80
2022-09-15T00:10:58.543Z,40.59
2022-09-15T00:13:26.055Z,40.97
2022-09-15T00:15:53.351Z,41.42
2022-09-15T00:18:20.602Z,41.04
2022-09-15T00:20:47.491Z,40.86
2022-09-15T00:23:16.208Z,40.74
2022-09-15T00:25:52.106Z,40.91
2022-09-15T00:28:21.441Z,40.03
2022-09-15T00:30:50.892Z,40.23
2022-09-15T00:33:19.044Z,39.79
2022-09-15T00:35:47.958Z,38.76
2022-09-15T00:38:15.884Z,38.41
2022-09-15T00:40:54.452Z,38.42
2022-09-15T00:43:42.644Z,39.11
2022-09-15T00:46:09.929Z,39.41
2022-09-15T00:48:40.432Z,39.07
2022-09-15T00:51:10.220Z,40.66
2022-09-15T00:53:37.849Z,41.59
2022-09-15T00:56:07.097Z,41.27
2022-09-15T00:58:41.462Z,41.20
2022-09-15T01:01:09.148Z,41.95
2022-09-15T01:03:36.782Z,43.00
2022-09-15T01:06:19.311Z,42.10
2022-09-15T01:08:52.367Z,41.66
2022-09-15T01:11:19.764Z,42.11
2022-09-15T01:13:46.678Z,41.34
2022-09-15T01:16:51.277Z,41.27
2022-09-15T01:20:07.020Z,41.18
2022-09-15T01:22:36.558Z,40.43
2022-09-15T01:25:42.383Z,42.28
2022-09-15T01:28:18.078Z,45.10
2022-09-15T01:30:56.283Z,43.52
2022-09-15T01:33:35.368Z,42.44
2022-09-15T01:36:10.774Z,42.78
2022-09-15T01:39:01.065Z,43.12
2022-09-15T01:41:35.041Z,42.81
2022-09-15T01:44:09.143Z,42.50
2022-09-15T01:46:47.257Z,42.21
2022-09-15T01:49:20.676Z,41.69
2022-09-15T01:51:50.772Z,41.72
2022-09-15T01:54:22.296Z,42.04
2022-09-15T01:56:49.196Z,42.17
2022-09-15T01:59:16.444Z,42.16
2022-09-15T02:01:52.472Z,42.95
2022-09-15T02:04:34.064Z,42.57
2022-09-15T02:07:21.162Z,42.09
2022-09-15T02:10:15.173Z,42.17
2022-09-15T02:13:17.198Z,41.67
2022-09-15T02:15:56.110Z,42.32
2022-09-15T02:18:34.766Z,42.90
2022-09-15T02:21:19.166Z,41.85
2022-09-15T02:23:53.522Z,40.85
2022-09-15T02:26:26.685Z,41.15
2022-09-15T02:28:58.117Z,41.05
2022-09-15T02:31:27.766Z,41.11
2022-09-15T02:33:59.232Z,40.79
2022-09-15T02:36:29.011Z,41.50
2022-09-15T02:39:09.226Z,42.99
2022-09-15T02:41:37.300Z,43.15
2022-09-15T02:44:04.528Z,43.93
2022-09-15T02:46:31.323Z,43.09
2022-09-15T02:48:58.087Z,43.09
2022-09-15T02:51:24.861Z,43.37
2022-09-15T02:53:51.727Z,43.46
2022-09-15T02:56:18.686Z,43.59
2022-09-15T02:58:45.381Z,43.72
2022-09-15T03:01:17.502Z,43.81
2022-09-15T03:03:45.462Z,43.76
2022-09-15T03:06:16.589Z,43.13
2022-09-15T03:08:47.356Z,44.41
2022-09-15T03:11:15.470Z,43.62
2022-09-15T03:13:43.337Z,43.54
2022-09-15T03:16:11.575Z,43.43
2022-09-15T03:18:39.946Z,43.57
2022-09-15T03:21:09.845Z,43.79
2022-09-15T03:23:36.891Z,43.70
2022-09-15T03:26:04.301Z,43.45
2022-09-15T03:28:31.590Z,43.17
2022-09-15T03:30:58.345Z,43.43
2022-09-15T03:33:25.943Z,43.44
2022-09-15T03:35:53.464Z,43.92
2022-09-15T03:38:20.459Z,45.38
2022-09-15T03:41:04.509Z,45.73
2022-09-15T03:43:32.376Z,44.78
2022-09-15T03:45:59.833Z,44.74
2022-09-15T03:48:28.419Z,44.84
2022-09-15T03:50:56.415Z,44.27
2022-09-15T03:53:23.367Z,44.43
2022-09-15T03:55:50.475Z,45.26
2022-09-15T03:58:18.572Z,44.82
2022-09-15T04:00:46.518Z,44.51
2022-09-15T04:03:13.922Z,44.75
2022-09-15T04:05:42.141Z,45.44
2022-09-15T04:08:12.002Z,45.81
2022-09-15T04:10:40.220Z,45.03
2022-09-15T04:13:07.132Z,44.76
2022-09-15T04:15:33.878Z,44.48
2022-09-15T04:18:01.024Z,45.38
2022-09-15T04:20:27.794Z,45.52
2022-09-15T04:22:54.765Z,45.63
2022-09-15T04:25:21.442Z,45.84
2022-09-15T04:27:48.236Z,45.82
2022-09-15T04:30:15.303Z,45.53
2022-09-15T04:32:41.991Z,45.13
2022-09-15T04:35:09.392Z,44.89
2022-09-15T04:37:36.113Z,44.38
2022-09-15T04:40:03.520Z,44.03
2022-09-15T04:42:31.127Z,43.92
2022-09-15T04:44:58.141Z,43.54
2022-09-15T04:47:24.917Z,42.91
2022-09-15T04:49:51.749Z,42.00
2022-09-15T04:52:18.740Z,41.83
2022-09-15T04:54:45.589Z,43.34
2022-09-15T04:57:12.450Z,43.15
2022-09-15T04:59:39.185Z,42.89
2022-09-15T05:02:06.089Z,43.18
2022-09-15T05:04:33.092Z,43.10
2022-09-15T05:06:59.749Z,44.46
2022-09-15T05:09:29.455Z,44.72
2022-09-15T05:11:56.703Z,43.86
2022-09-15T05:14:23.624Z,44.83
2022-09-15T05:16:50.401Z,44.96
2022-09-15T05:19:17.177Z,43.98
2022-09-15T05:21:44.066Z,43.93
2022-09-15T05:24:10.811Z,42.71
2022-09-15T05:26:37.691Z,43.89
2022-09-15T05:29:05.456Z,43.87
2022-09-15T05:31:34.008Z,43.77
2022-09-15T05:34:04.412Z,43.80
2022-09-15T05:36:32.199Z,43.94
2022-09-15T05:38:59.428Z,43.96
2022-09-15T05:41:27.468Z,43.09
2022-09-15T05:43:57.069Z,43.27
2022-09-15T05:46:26.278Z,42.84
2022-09-15T05:48:55.183Z,43.46
2022-09-15T05:51:22.309Z,44.18
2022-09-15T05:53:49.123Z,45.28
2022-09-15T05:56:17.354Z,44.73
2022-09-15T05:58:46.389Z,44.60
2022-09-15T06:01:16.621Z,44.27
2022-09-15T06:03:44.249Z,42.41
2022-09-15T06:06:12.236Z,40.98
2022-09-15T06:08:47.030Z,40.71
2022-09-15T06:11:20.569Z,40.47
2022-09-15T06:13:47.741Z,39.82
2022-09-15T06:16:20.005Z,39.37
2022-09-15T06:18:48.588Z,38.74
2022-09-15T06:21:18.643Z,39.65
2022-09-15T06:23:50.522Z,39.50
2022-09-15T06:26:19.397Z,40.39
2022-09-15T06:28:53.460Z,40.18
2022-09-15T06:31:21.050Z,40.61
2022-09-15T06:33:51.421Z,40.63
2022-09-15T06:36:20.164Z,40.47
2022-09-15T06:38:47.713Z,42.25
2022-09-15T06:41:15.539Z,41.83
2022-09-15T06:43:43.337Z,40.49
2022-09-15T06:46:13.132Z,40.82
2022-09-15T06:48:40.844Z,41.02
2022-09-15T06:51:10.847Z,40.20
2022-09-15T06:53:39.192Z,39.01
2022-09-15T06:56:11.923Z,39.04
2022-09-15T06:58:40.871Z,38.46
2022-09-15T07:01:10.410Z,37.59
2022-09-15T07:03:40.453Z,38.36
2022-09-15T07:06:08.193Z,39.72
2022-09-15T07:08:35.315Z,37.61
2022-09-15T07:11:02.086Z,37.32
2022-09-15T07:13:28.968Z,37.38
2022-09-15T07:16:02.212Z,38.13
2022-09-15T07:18:30.083Z,36.79
2022-09-15T07:21:02.128Z,36.15
2022-09-15T07:23:30.476Z,37.59
2022-09-15T07:26:12.438Z,36.46
2022-09-15T07:28:42.394Z,36.11
2022-09-15T07:31:11.689Z,35.09
2022-09-15T07:33:38.967Z,36.05
2022-09-15T07:36:07.516Z,34.60
2022-09-15T07:38:35.703Z,35.93
2022-09-15T07:41:04.289Z,35.02
2022-09-15T07:43:31.358Z,34.77
2022-09-15T07:46:02.355Z,34.87
2022-09-15T07:48:29.816Z,34.79
2022-09-15T07:50:56.848Z,34.08
2022-09-15T07:53:23.502Z,33.69
2022-09-15T07:55:53.850Z,33.17
2022-09-15T07:58:21.225Z,34.59
2022-09-15T08:00:48.055Z,34.01
2022-09-15T08:03:15.944Z,32.25
2022-09-15T08:05:45.657Z,32.38
2022-09-15T08:08:13.240Z,32.31
2022-09-15T08:10:41.382Z,33.49
2022-09-15T08:13:09.057Z,32.34
2022-09-15T08:15:37.670Z,31.78
2022-09-15T08:18:05.755Z,31.70
2022-09-15T08:20:33.719Z,31.94
2022-09-15T08:23:00.809Z,33.17
2022-09-15T08:25:27.938Z,34.18
2022-09-15T08:27:56.480Z,34.04
2022-09-15T08:30:24.650Z,31.69
2022-09-15T08:32:51.452Z,31.63
2022-09-15T08:35:19.378Z,31.22
2022-09-15T08:37:47.049Z,32.24
2022-09-15T08:40:23.577Z,33.07
2022-09-15T08:42:53.248Z,31.62
2022-09-15T08:45:25.948Z,30.28
2022-09-15T08:47:59.964Z,31.95
2022-09-15T08:50:29.985Z,31.96
2022-09-15T08:53:17.115Z,31.75
2022-09-15T08:55:46.928Z,30.90
2022-09-15T08:58:25.584Z,31.04
2022-09-15T09:01:15.339Z,29.62
2022-09-15T09:04:17.551Z,31.98
2022-09-15T09:06:59.845Z,31.38
2022-09-15T09:09:43.810Z,30.87
2022-09-15T09:12:32.302Z,30.25
2022-09-15T09:15:21.048Z,29.42
2022-09-15T09:18:18.326Z,30.61
2022-09-15T09:20:51.512Z,29.29
2022-09-15T09:23:23.925Z,30.06
2022-09-15T09:25:52.224Z,30.34
2022-09-15T09:28:47.585Z,28.96
2022-09-15T09:31:25.602Z,28.48
2022-09-15T09:34:13.500Z,28.07
2022-09-15T09:36:40.501Z,27.99
2022-09-15T09:39:13.596Z,28.10
2022-09-15T09:41:42.178Z,27.79
2022-09-15T09:44:14.762Z,28.04
2022-09-15T09:46:43.554Z,29.20
2022-09-15T09:49:23.100Z,29.07
2022-09-15T09:51:52.320Z,28.93
2022-09-15T09:54:21.714Z,27.58
2022-09-15T09:56:50.292Z,27.36
2022-09-15T09:59:34.641Z,28.56
2022-09-15T10:02:10.928Z,27.31
2022-09-15T10:04:39.938Z,27.93
2022-09-15T10:07:07.359Z,26.72
2022-09-15T10:09:34.918Z,25.98
2022-09-15T10:12:05.907Z,27.21
2022-09-15T10:14:35.647Z,26.21
2022-09-15T10:17:21.928Z,26.94
2022-09-15T10:19:51.070Z,28.24
2022-09-15T10:22:35.928Z,28.14
2022-09-15T10:25:39.478Z,28.44
2022-09-15T10:28:17.738Z,26.65
2022-09-15T10:31:06.991Z,26.73
2022-09-15T10:33:38.795Z,25.86
2022-09-15T10:36:05.851Z,27.24
2022-09-15T10:38:40.157Z,26.29
2022-09-15T10:41:25.120Z,25.72
2022-09-15T10:44:09.793Z,24.90
2022-09-15T10:47:14.763Z,25.66
2022-09-15T10:49:50.257Z,25.74
2022-09-15T10:52:32.404Z,27.78
2022-09-15T10:55:02.199Z,26.37
2022-09-15T10:57:58.099Z,25.51
2022-09-15T11:00:28.088Z,24.90
2022-09-15T11:03:18.948Z,25.18
2022-09-15T11:06:32.884Z,26.56
2022-09-15T11:09:21.623Z,23.66
2022-09-15T11:12:16.911Z,23.72
2022-09-15T11:14:58.867Z,22.83
2022-09-15T11:17:40.992Z,22.75
2022-09-15T11:20:14.149Z,24.08
2022-09-15T11:22:52.929Z,23.10
2022-09-15T11:25:30.292Z,22.52
2022-09-15T11:28:20.079Z,22.00
2022-09-15T11:31:12.266Z,22.81
2022-09-15T11:33:49.943Z,22.97
2022-09-15T11:36:25.209Z,24.50
2022-09-15T11:38:59.873Z,22.22
2022-09-15T11:41:44.147Z,21.92
2022-09-15T11:44:17.165Z,22.13
2022-09-15T11:47:05.286Z,22.15
2022-09-15T11:50:06.104Z,20.99
2022-09-15T11:52:44.919Z,20.40
2022-09-15T11:55:33.289Z,21.29
2022-09-15T11:58:17.351Z,21.47
2022-09-15T12:00:56.110Z,20.66
2022-09-15T12:03:30.886Z,19.92
2022-09-15T12:06:07.647Z,19.55
2022-09-15T12:08:41.890Z,19.23
2022-09-15T12:11:17.657Z,19.67
2022-09-15T12:13:45.595Z,18.75
2022-09-15T12:16:13.014Z,18.60
2022-09-15T12:18:50.348Z,18.90
2022-09-15T12:21:33.976Z,18.61
2022-09-15T12:24:14.766Z,19.19
2022-09-15T12:26:43.443Z,19.61
2022-09-15T12:29:22.392Z,20.55
2022-09-15T12:32:09.823Z,19.49
2022-09-15T12:34:38.540Z,19.38
2022-09-15T12:37:15.276Z,18.30
2022-09-15T12:39:44.561Z,18.59
2022-09-15T12:42:24.771Z,17.80
2022-09-15T12:45:01.015Z,18.72
2022-09-15T12:47:40.685Z,17.82
2022-09-15T12:50:16.534Z,19.68
2022-09-15T12:52:47.315Z,18.47
2022-09-15T12:55:48.738Z,18.20
2022-09-15T12:58:32.609Z,18.35
2022-09-15T13:01:18.847Z,18.02
2022-09-15T13:03:46.227Z,18.00
2022-09-15T13:06:35.144Z,17.90
2022-09-15T13:09:01.806Z,18.50
2022-09-15T13:11:38.455Z,18.53
2022-09-15T13:14:08.121Z,18.40
2022-09-15T13:16:43.984Z,17.89
2022-09-15T13:19:44.308Z,17.49
2022-09-15T13:22:11.111Z,17.41
2022-09-15T13:24:50.214Z,17.55
2022-09-15T13:27:21.247Z,17.91
2022-09-15T13:30:30.199Z,16.90
2022-09-15T13:39:22.995Z,17.38
2022-09-15T13:42:14.340Z,16.99
2022-09-15T13:45:07.935Z,18.10
2022-09-15T13:47:46.409Z,17.09
2022-09-15T13:50:25.356Z,17.21
2022-09-15T13:53:00.815Z,17.24
2022-09-15T13:55:32.796Z,17.39
2022-09-15T14:01:02.253Z,17.27
2022-09-15T14:03:46.590Z,17.67
2022-09-15T14:06:19.515Z,17.70
2022-09-15T14:08:52.530Z,17.39
2022-09-15T14:11:30.696Z,17.01
2022-09-15T14:14:00.555Z,17.61
2022-09-15T14:16:27.905Z,17.81
2022-09-15T14:18:57.773Z,17.57
2022-09-15T14:21:27.334Z,17.99
2022-09-15T14:23:57.966Z,17.80
2022-09-15T14:26:28.115Z,17.52
2022-09-15T14:29:02.161Z,17.00
2022-09-15T14:31:35.103Z,16.76
2022-09-15T14:34:05.351Z,16.17
2022-09-15T14:36:33.896Z,16.29
2022-09-15T14:39:20.705Z,16.15
2022-09-15T14:41:48.856Z,16.22
2022-09-15T14:47:28.231Z,15.80
2022-09-15T14:50:29.104Z,15.65
2022-09-15T14:53:16.305Z,16.24
2022-09-15T14:55:56.624Z,16.00
2022-09-15T14:58:35.536Z,16.10
2022-09-15T15:01:22.183Z,16.17
2022-09-15T15:03:49.216Z,16.11
2022-09-15T15:06:29.846Z,16.56
2022-09-15T15:08:59.860Z,16.46
2022-09-15T15:11:29.103Z,15.91
2022-09-15T15:13:57.148Z,16.45
2022-09-15T15:16:31.073Z,16.26
2022-09-15T15:18:59.007Z,16.51
2022-09-15T15:21:39.051Z,16.67
2022-09-15T15:24:14.979Z,17.31
2022-09-15T15:26:44.216Z,16.79
2022-09-15T15:29:43.892Z,17.26
2022-09-15T15:32:22.501Z,17.16
2022-09-15T15:34:50.751Z,17.82
2022-09-15T15:37:32.138Z,17.55
2022-09-15T15:40:04.478Z,17.68
2022-09-15T15:42:31.391Z,17.82
2022-09-15T15:45:01.494Z,17.80
2022-09-15T15:47:32.185Z,17.54
2022-09-15T15:50:14.541Z,17.12
2022-09-15T15:52:43.551Z,17.90
2022-09-15T15:55:14.383Z,17.65
2022-09-15T15:57:41.068Z,18.02
2022-09-15T16:00:21.253Z,17.97
2022-09-15T16:02:49.582Z,18.62
2022-09-15T16:05:17.185Z,18.38
2022-09-15T16:07:47.379Z,18.50
2022-09-15T16:10:21.175Z,18.77
2022-09-15T16:12:48.119Z,19.07
2022-09-15T16:15:18.084Z,18.98
2022-09-15T16:17:46.948Z,19.92
2022-09-15T16:20:16.230Z,20.25
2022-09-15T16:22:43.524Z,20.36
2022-09-15T16:25:28.767Z,20.34
2022-09-15T16:27:55.864Z,20.37
2022-09-15T16:30:22.635Z,20.43
2022-09-15T16:32:49.595Z,20.69
2022-09-15T16:35:26.476Z,21.06
2022-09-15T16:37:53.432Z,21.27
2022-09-15T16:40:20.260Z,21.04
2022-09-15T16:42:48.027Z,20.92
2022-09-15T16:45:39.718Z,21.01
2022-09-15T16:48:09.179Z,21.00
2022-09-15T16:50:39.886Z,20.90
2022-09-15T16:53:14.603Z,20.76
2022-09-15T16:55:46.177Z,20.82
2022-09-15T16:58:14.508Z,21.10
2022-09-15T17:00:42.548Z,20.82
2022-09-15T17:03:14.665Z,21.09
2022-09-15T17:05:48.521Z,20.83
2022-09-15T17:11:05.029Z,21.65
2022-09-15T17:13:33.771Z,22.10
2022-09-15T17:16:01.473Z,22.34
2022-09-15T17:18:28.616Z,22.81
2022-09-15T17:20:56.310Z,23.53
2022-09-15T17:23:28.636Z,23.12
2022-09-15T17:26:01.174Z,22.85
2022-09-15T17:28:31.116Z,22.83
2022-09-15T17:31:00.470Z,23.16
2022-09-15T17:33:28.723Z,23.25
2022-09-15T17:35:55.776Z,23.22
2022-09-15T17:38:23.204Z,23.46
2022-09-15T17:40:51.428Z,24.55
2022-09-15T17:43:29.601Z,25.00
2022-09-15T17:45:57.061Z,25.52
2022-09-15T17:48:24.750Z,24.74
2022-09-15T17:50:52.370Z,25.03
2022-09-15T17:53:26.619Z,24.82
2022-09-15T17:55:55.481Z,25.04
2022-09-15T17:58:24.032Z,25.72
2022-09-15T18:00:50.923Z,26.47
2022-09-15T18:03:20.934Z,26.12
2022-09-15T18:05:48.285Z,26.17
2022-09-15T18:08:16.878Z,26.09
2022-09-15T18:10:43.978Z,26.81
2022-09-15T18:13:15.239Z,26.39
2022-09-15T18:15:42.926Z,27.51
2022-09-15T18:18:14.892Z,27.15
2022-09-15T18:20:42.311Z,27.15
2022-09-15T18:23:20.277Z,26.89
2022-09-15T18:25:48.254Z,28.08
2022-09-15T18:28:15.689Z,27.64
2022-09-15T18:30:45.244Z,28.76
2022-09-15T18:33:18.299Z,28.59
2022-09-15T18:35:45.241Z,28.93
2022-09-15T18:38:13.187Z,29.39
2022-09-15T18:40:56.080Z,28.94
2022-09-15T18:43:25.291Z,29.78
2022-09-15T18:45:54.754Z,28.49
2022-09-15T18:48:21.707Z,29.68
2022-09-15T18:50:48.459Z,30.19
2022-09-15T18:53:15.363Z,29.02
2022-09-15T18:55:42.593Z,28.92
2022-09-15T18:58:10.700Z,29.75
2022-09-15T19:00:37.684Z,29.33
2022-09-15T19:03:06.891Z,28.75
2022-09-15T19:05:34.297Z,29.52
2022-09-15T19:08:02.264Z,29.38
2022-09-15T19:10:29.379Z,29.53
2022-09-15T19:12:56.369Z,29.79
2022-09-15T19:15:24.292Z,29.09
2022-09-15T19:17:51.372Z,28.59
2022-09-15T19:20:18.366Z,28.98
2022-09-15T19:22:46.077Z,29.14
2022-09-15T19:25:13.540Z,29.92
2022-09-15T19:27:40.474Z,29.50
2022-09-15T19:30:12.306Z,29.46
2022-09-15T19:32:40.485Z,29.59
2022-09-15T19:35:08.662Z,31.09
2022-09-15T19:37:38.109Z,29.88
2022-09-15T19:40:09.468Z,29.83
2022-09-15T19:42:38.655Z,29.59
2022-09-15T19:45:06.760Z,28.73
2022-09-15T19:47:34.713Z,28.57
2022-09-15T19:50:01.789Z,28.57
2022-09-15T19:52:28.812Z,28.00
2022-09-15T19:54:55.551Z,27.50
2022-09-15T19:57:23.261Z,28.21
2022-09-15T19:59:50.268Z,27.73
2022-09-15T20:02:17.424Z,27.95
2022-09-15T20:04:44.865Z,27.52
2022-09-15T20:07:12.644Z,27.29
2022-09-15T20:09:39.428Z,27.02
2022-09-15T20:12:06.506Z,27.03
2022-09-15T20:14:33.252Z,27.28
2022-09-15T20:17:01.286Z,26.69
2022-09-15T20:19:29.597Z,26.64
2022-09-15T20:21:56.518Z,26.46
2022-09-15T20:24:24.118Z,26.25
2022-09-15T20:26:52.523Z,26.49
2022-09-15T20:29:19.970Z,27.93
2022-09-15T20:31:47.999Z,28.33
2022-09-15T20:34:15.206Z,29.08
2022-09-15T20:36:42.395Z,29.79
2022-09-15T20:39:13.282Z,30.73
2022-09-15T20:41:44.877Z,30.65
2022-09-15T20:44:12.098Z,29.40
2022-09-15T20:46:38.889Z,29.77
2022-09-15T20:49:06.940Z,29.81
2022-09-15T20:51:34.306Z,30.20
2022-09-15T20:54:03.410Z,30.04
2022-09-15T20:56:32.240Z,30.81
2022-09-15T20:58:59.975Z,31.25
2022-09-15T21:01:37.591Z,32.34
2022-09-15T21:04:06.616Z,32.45
2022-09-15T21:06:34.043Z,31.47
2022-09-15T21:09:01.118Z,30.64
2022-09-15T21:11:28.827Z,30.42
2022-09-15T21:13:56.801Z,30.02
2022-09-15T21:16:26.332Z,29.67
2022-09-15T21:18:53.961Z,29.70
2022-09-15T21:21:26.736Z,30.32
2022-09-15T21:23:55.564Z,29.75
2022-09-15T21:26:24.987Z,30.24
2022-09-15T21:28:52.859Z,32.10
2022-09-15T21:31:31.284Z,31.41
2022-09-15T21:33:59.300Z,30.26
2022-09-15T21:36:30.786Z,30.38
2022-09-15T21:38:59.220Z,31.00
2022-09-15T21:41:29.773Z,31.51
2022-09-15T21:43:58.332Z,31.64
2022-09-15T21:46:27.849Z,30.77
2022-09-15T21:48:56.549Z,30.80
2022-09-15T21:51:25.153Z,30.06
2022-09-15T21:53:56.686Z,30.57
2022-09-15T21:56:24.347Z,31.41
2022-09-15T21:58:51.274Z,30.71
2022-09-15T22:01:26.031Z,31.13
2022-09-15T22:04:06.729Z,31.65
2022-09-15T22:06:36.304Z,31.67
2022-09-15T22:09:21.394Z,32.01
2022-09-15T22:11:49.094Z,31.52
2022-09-15T22:14:15.776Z,31.70
2022-09-15T22:16:43.463Z,31.52
2022-09-15T22:19:12.514Z,32.15
2022-09-15T22:21:41.915Z,31.75
2022-09-15T22:24:12.048Z,30.99
2022-09-15T22:26:39.920Z,31.89
2022-09-15T22:29:07.647Z,31.86
2022-09-15T22:31:35.097Z,33.03
2022-09-15T22:34:02.324Z,32.87
2022-09-15T22:36:30.890Z,32.32
2022-09-15T22:39:05.304Z,31.58
2022-09-15T22:41:38.474Z,32.00
2022-09-15T22:44:06.848Z,31.61
2022-09-15T22:46:34.248Z,31.47
2022-09-15T22:49:01.389Z,32.44
2022-09-15T22:51:28.443Z,31.98
2022-09-15T22:53:57.087Z,31.16
2022-09-15T22:56:26.383Z,32.15
2022-09-15T22:58:53.673Z,32.55
2022-09-15T23:01:22.937Z,31.67
2022-09-15T23:03:51.498Z,31.71
2022-09-15T23:06:20.103Z,32.99
2022-09-15T23:08:58.278Z,32.06
2022-09-15T23:11:28.882Z,32.00
2022-09-15T23:13:56.374Z,32.35
2022-09-15T23:16:24.697Z,32.25
2022-09-15T23:18:53.160Z,33.00
2022-09-15T23:21:20.737Z,32.64
2022-09-15T23:23:49.270Z,33.53
2022-09-15T23:26:20.657Z,33.87
2022-09-15T23:28:49.560Z,32.64
2022-09-15T23:31:16.906Z,32.70
2022-09-15T23:33:44.194Z,33.23
2022-09-15T23:36:13.384Z,33.26
2022-09-15T23:38:41.529Z,32.82
2022-09-15T23:41:09.294Z,33.43
2022-09-15T23:43:36.589Z,33.78
2022-09-15T23:46:04.365Z,34.39
2022-09-15T23:48:32.560Z,33.67
2022-09-15T23:51:00.187Z,34.32
2022-09-15T23:53:27.385Z,34.14
2022-09-15T23:55:55.375Z,33.70
2022-09-15T23:58:22.169Z,34.48
